Welty, Oklahoma
Current Conditions -  °F | °C
As of 12:55 AM on Monday 24 Nov 2014 (Local Time) from KCQB Reporting Station
Clear Clear  
Wind Chill: 37°   Ceiling: Unl
Heat Index: 43°   Visibility: 10mi
Dew Point: 41°   Wind: 9mph
Humidity: 93%   Direction: 300°WNW
Pressure: 29.78"   Gusts: NA
Location:  35.601°N, 96.4288°W
Report Text: KCQB 240655Z AUTO 30008KT 10SM CLR 06/05 A2978 RMK AO2
Loading
Personal Weather Stations






























Interactive Weather Map New forecast layout! Learn more

10-Day Weather Forecast

Advertisements
Track Severe Weather on mobile